createdAt,value
2023-03-22T00:01:56.581Z,91.00
2023-03-22T00:04:24.376Z,90.60
2023-03-22T00:06:52.139Z,90.50
2023-03-22T00:09:19.848Z,90.50
2023-03-22T00:11:50.742Z,90.10
2023-03-22T00:14:18.725Z,90.60
2023-03-22T00:16:48.948Z,91.10
2023-03-22T00:19:18.197Z,91.10
2023-03-22T00:21:47.674Z,91.50
2023-03-22T00:24:15.381Z,91.80
2023-03-22T00:26:43.053Z,92.00
2023-03-22T00:29:10.747Z,91.40
2023-03-22T00:31:38.495Z,91.50
2023-03-22T00:34:06.208Z,91.60
2023-03-22T00:36:37.710Z,91.50
2023-03-22T00:39:05.417Z,91.30
2023-03-22T00:41:33.114Z,91.30
2023-03-22T00:44:01.053Z,91.20
2023-03-22T00:46:28.888Z,91.00
2023-03-22T00:48:57.305Z,90.90
2023-03-22T00:51:25.382Z,90.70
2023-03-22T00:53:55.008Z,90.40
2023-03-22T00:56:25.383Z,90.20
2023-03-22T00:59:00.580Z,89.90
2023-03-22T01:01:29.791Z,89.60
2023-03-22T01:03:57.594Z,89.60
2023-03-22T01:06:25.450Z,89.60
2023-03-22T01:08:57.223Z,89.60
2023-03-22T01:11:25.877Z,89.50
2023-03-22T01:13:54.691Z,89.50
2023-03-22T01:16:22.566Z,89.20
2023-03-22T01:18:50.339Z,89.20
2023-03-22T01:21:18.364Z,89.30
2023-03-22T01:23:46.615Z,89.40
2023-03-22T01:26:15.731Z,89.30
2023-03-22T01:28:43.405Z,89.30
2023-03-22T01:31:11.160Z,88.80
2023-03-22T01:33:39.092Z,88.90
2023-03-22T01:36:07.776Z,88.60
2023-03-22T01:38:36.622Z,88.90
2023-03-22T01:41:04.663Z,89.20
2023-03-22T01:43:37.116Z,89.40
2023-03-22T01:46:05.492Z,90.10
2023-03-22T01:48:36.315Z,90.50
2023-03-22T01:51:09.234Z,90.60
2023-03-22T01:53:51.037Z,90.90
2023-03-22T01:56:22.650Z,90.70
2023-03-22T01:58:53.399Z,90.40
2023-03-22T02:01:27.249Z,90.60
2023-03-22T02:03:59.779Z,90.70
2023-03-22T02:06:29.841Z,90.60
2023-03-22T02:09:04.899Z,90.70
2023-03-22T02:11:35.835Z,91.00
2023-03-22T02:14:27.276Z,90.90
2023-03-22T02:17:28.816Z,90.70
2023-03-22T02:20:30.608Z,90.50
2023-03-22T02:23:18.232Z,90.40
2023-03-22T02:26:07.555Z,90.20
2023-03-22T02:28:44.549Z,90.30
2023-03-22T02:31:40.493Z,90.00
2023-03-22T02:34:30.877Z,90.10
2023-03-22T02:37:21.886Z,90.10
2023-03-22T02:39:54.824Z,89.60
2023-03-22T02:42:33.884Z,89.60
2023-03-22T02:45:07.487Z,89.80
2023-03-22T02:47:40.994Z,89.70
2023-03-22T02:50:14.804Z,89.70
2023-03-22T02:52:47.473Z,90.20
2023-03-22T02:55:22.229Z,90.30
2023-03-22T02:57:55.104Z,90.30
2023-03-22T03:00:22.951Z,90.20
2023-03-22T03:02:55.510Z,89.70
2023-03-22T03:05:25.313Z,90.00
2023-03-22T03:07:57.949Z,90.50
2023-03-22T03:10:28.454Z,90.50
2023-03-22T03:12:56.275Z,90.30
2023-03-22T03:15:25.847Z,90.20
2023-03-22T03:18:04.226Z,90.00
2023-03-22T03:20:44.300Z,89.80
2023-03-22T03:23:20.500Z,89.40
2023-03-22T03:25:58.760Z,89.40
2023-03-22T03:28:38.383Z,89.30
2023-03-22T03:31:18.643Z,89.20
2023-03-22T03:33:50.916Z,89.10
2023-03-22T03:36:21.192Z,89.00
2023-03-22T03:38:52.790Z,88.80
2023-03-22T03:41:25.554Z,88.70
2023-03-22T03:43:55.868Z,88.80
2023-03-22T03:46:24.268Z,88.90
2023-03-22T03:48:53.673Z,88.90
2023-03-22T03:51:21.500Z,88.90
2023-03-22T03:53:49.214Z,88.90
2023-03-22T03:56:18.388Z,88.70
2023-03-22T03:58:49.802Z,88.70
2023-03-22T04:01:19.528Z,88.70
2023-03-22T04:03:56.194Z,88.80
2023-03-22T04:06:35.462Z,88.80
2023-03-22T04:09:10.098Z,88.70
2023-03-22T04:11:42.654Z,88.90
2023-03-22T04:14:11.850Z,88.90
2023-03-22T04:16:39.825Z,88.90
2023-03-22T04:19:10.897Z,88.90
2023-03-22T04:21:38.696Z,89.00
2023-03-22T04:24:09.195Z,89.10
2023-03-22T04:26:41.781Z,88.80
2023-03-22T04:29:24.556Z,88.50
2023-03-22T04:31:57.815Z,88.90
2023-03-22T04:34:31.449Z,89.70
2023-03-22T04:37:03.280Z,89.90
2023-03-22T04:39:37.546Z,90.00
2023-03-22T04:42:25.259Z,90.30
2023-03-22T04:45:05.940Z,90.40
2023-03-22T04:47:35.487Z,91.10
2023-03-22T04:50:07.144Z,91.40
2023-03-22T04:52:43.753Z,91.60
2023-03-22T04:55:12.182Z,91.70
2023-03-22T04:57:40.199Z,91.30
2023-03-22T05:00:10.177Z,91.20
2023-03-22T05:02:41.893Z,91.00
2023-03-22T05:05:21.951Z,91.10
2023-03-22T05:07:51.541Z,91.00
2023-03-22T05:10:19.873Z,91.20
2023-03-22T05:12:47.917Z,91.20
2023-03-22T05:15:24.370Z,91.20
2023-03-22T05:17:55.561Z,91.00
2023-03-22T05:20:24.859Z,90.90
2023-03-22T05:23:05.302Z,90.20
2023-03-22T05:25:34.123Z,89.80
2023-03-22T05:28:02.006Z,90.40
2023-03-22T05:30:39.799Z,91.30
2023-03-22T05:33:21.541Z,91.40
2023-03-22T05:35:52.095Z,91.30
2023-03-22T05:38:22.727Z,91.30
2023-03-22T05:40:52.902Z,91.70
2023-03-22T05:43:21.383Z,91.30
2023-03-22T05:45:55.244Z,91.40
2023-03-22T05:48:33.104Z,91.30
2023-03-22T05:51:03.304Z,91.50
2023-03-22T05:53:35.636Z,91.50
2023-03-22T05:56:13.927Z,91.80
2023-03-22T05:58:44.638Z,92.00
2023-03-22T06:01:18.425Z,92.00
2023-03-22T06:03:50.652Z,92.30
2023-03-22T06:06:28.364Z,92.80
2023-03-22T06:09:16.304Z,92.90
2023-03-22T06:11:45.619Z,92.90
2023-03-22T06:14:16.142Z,92.30
2023-03-22T06:17:05.132Z,92.50
2023-03-22T06:19:33.056Z,92.60
2023-03-22T06:22:03.819Z,92.70
2023-03-22T06:24:34.130Z,92.50
2023-03-22T06:27:03.172Z,92.30
2023-03-22T06:29:32.801Z,91.90
2023-03-22T06:32:04.954Z,90.80
2023-03-22T06:34:38.018Z,90.40
2023-03-22T06:37:07.883Z,90.60
2023-03-22T06:39:42.593Z,90.40
2023-03-22T06:42:11.832Z,90.70
2023-03-22T06:44:43.393Z,89.30
2023-03-22T06:47:32.261Z,88.30
2023-03-22T06:50:15.740Z,83.40
2023-03-22T06:53:03.373Z,81.40
2023-03-22T06:55:33.263Z,77.60
2023-03-22T06:58:02.106Z,74.20
2023-03-22T07:00:30.121Z,70.90
2023-03-22T07:03:03.582Z,68.60
2023-03-22T07:05:51.911Z,69.20
2023-03-22T07:08:20.188Z,68.10
2023-03-22T07:10:51.792Z,67.60
2023-03-22T07:13:24.739Z,65.00
2023-03-22T07:15:57.553Z,63.60
2023-03-22T07:18:44.976Z,63.40
2023-03-22T07:21:12.713Z,65.90
2023-03-22T07:23:43.600Z,68.00
2023-03-22T07:26:15.321Z,70.10
2023-03-22T07:28:48.646Z,70.90
2023-03-22T07:31:17.152Z,74.10
2023-03-22T07:34:04.258Z,76.40
2023-03-22T07:36:42.425Z,77.20
2023-03-22T07:39:12.095Z,77.90
2023-03-22T07:41:44.972Z,78.80
2023-03-22T07:44:32.819Z,78.60
2023-03-22T07:47:37.671Z,79.00
2023-03-22T07:50:27.472Z,78.90
2023-03-22T07:52:57.604Z,78.20
2023-03-22T07:55:27.754Z,78.70
2023-03-22T07:57:56.625Z,78.80
2023-03-22T08:00:24.899Z,79.00
2023-03-22T08:03:06.719Z,77.80
2023-03-22T08:06:00.202Z,75.30
2023-03-22T08:08:30.461Z,72.30
2023-03-22T08:10:59.824Z,70.20
2023-03-22T08:13:27.597Z,66.00
2023-03-22T08:15:55.773Z,64.40
2023-03-22T08:18:23.553Z,64.60
2023-03-22T08:20:56.272Z,64.20
2023-03-22T08:23:41.496Z,64.40
2023-03-22T08:26:31.686Z,65.60
2023-03-22T08:29:10.787Z,63.90
2023-03-22T08:31:38.919Z,63.00
2023-03-22T08:34:06.760Z,61.60
2023-03-22T08:36:35.805Z,59.90
2023-03-22T08:39:05.472Z,59.30
2023-03-22T08:41:43.119Z,59.70
2023-03-22T08:44:11.219Z,58.50
2023-03-22T08:46:39.191Z,58.80
2023-03-22T08:49:07.112Z,58.00
2023-03-22T08:51:40.919Z,56.00
2023-03-22T08:54:17.389Z,55.90
2023-03-22T08:57:09.277Z,57.00
2023-03-22T08:59:46.623Z,55.90
2023-03-22T09:02:27.969Z,56.70
2023-03-22T09:04:56.905Z,56.80
2023-03-22T09:07:28.862Z,57.20
2023-03-22T09:10:12.348Z,57.10
2023-03-22T09:12:44.536Z,54.60
2023-03-22T09:15:16.518Z,51.40
2023-03-22T09:17:47.911Z,51.60
2023-03-22T09:20:18.061Z,49.10
2023-03-22T09:22:50.995Z,50.40
2023-03-22T09:25:22.174Z,52.10
2023-03-22T09:27:52.536Z,51.70
2023-03-22T09:30:20.315Z,53.00
2023-03-22T09:32:48.562Z,54.60
2023-03-22T09:35:17.820Z,54.90
2023-03-22T09:38:08.044Z,51.60
2023-03-22T09:40:38.254Z,50.40
2023-03-22T09:43:13.721Z,48.90
2023-03-22T09:45:47.670Z,48.90
2023-03-22T09:48:21.759Z,49.20
2023-03-22T09:50:55.452Z,50.10
2023-03-22T09:53:30.662Z,51.10
2023-03-22T09:56:03.759Z,50.50
2023-03-22T09:58:34.918Z,49.20
2023-03-22T10:01:06.699Z,49.10
2023-03-22T10:03:58.897Z,50.00
2023-03-22T10:06:29.592Z,50.60
2023-03-22T10:09:08.353Z,51.00
2023-03-22T10:11:46.116Z,50.90
2023-03-22T10:14:25.831Z,51.80
2023-03-22T10:16:57.368Z,52.60
2023-03-22T10:19:32.125Z,51.20
2023-03-22T10:22:03.126Z,50.70
2023-03-22T10:24:34.673Z,50.50
2023-03-22T10:27:03.297Z,52.10
2023-03-22T10:29:36.813Z,48.40
2023-03-22T10:32:15.596Z,47.80
2023-03-22T10:34:44.343Z,47.10
2023-03-22T10:37:16.230Z,47.00
2023-03-22T10:39:49.722Z,46.60
2023-03-22T10:42:21.447Z,46.60
2023-03-22T10:44:52.791Z,47.20
2023-03-22T10:47:31.333Z,47.80
2023-03-22T10:50:03.888Z,47.30
2023-03-22T10:52:40.756Z,48.10
2023-03-22T10:55:16.081Z,47.90
2023-03-22T10:57:50.547Z,47.30
2023-03-22T11:00:22.647Z,47.30
2023-03-22T11:02:53.996Z,46.90
2023-03-22T11:05:25.808Z,46.70
2023-03-22T11:07:54.669Z,43.20
2023-03-22T11:10:30.843Z,43.20
2023-03-22T11:13:18.630Z,43.50
2023-03-22T11:15:58.998Z,42.60
2023-03-22T11:18:31.957Z,42.80
2023-03-22T11:21:07.720Z,40.70
2023-03-22T11:23:38.770Z,40.80
2023-03-22T11:26:12.640Z,43.10
2023-03-22T11:28:46.229Z,45.20
2023-03-22T11:31:18.898Z,44.40
2023-03-22T11:33:56.752Z,45.00
2023-03-22T11:36:27.184Z,44.90
2023-03-22T11:38:58.689Z,45.40
2023-03-22T11:41:32.584Z,46.60
2023-03-22T11:44:04.439Z,47.90
2023-03-22T11:46:34.732Z,45.40
2023-03-22T11:49:08.451Z,46.20
2023-03-22T11:51:40.201Z,47.20
2023-03-22T11:54:15.824Z,46.60
2023-03-22T11:56:48.809Z,45.80
2023-03-22T11:59:25.294Z,44.80
2023-03-22T12:01:59.520Z,43.60
2023-03-22T12:04:32.301Z,43.50
2023-03-22T12:07:07.101Z,43.90
2023-03-22T12:09:42.347Z,44.80
2023-03-22T12:12:17.850Z,45.80
2023-03-22T12:14:52.316Z,46.80
2023-03-22T12:17:29.313Z,47.60
2023-03-22T12:20:11.084Z,50.80
2023-03-22T12:22:47.945Z,49.50
2023-03-22T12:25:25.218Z,50.60
2023-03-22T12:27:59.150Z,50.80
2023-03-22T12:30:33.765Z,50.80
2023-03-22T12:33:11.677Z,52.30
2023-03-22T12:35:47.114Z,51.40
2023-03-22T12:38:27.885Z,52.30
2023-03-22T12:40:57.707Z,52.70
2023-03-22T12:43:38.902Z,52.70
2023-03-22T12:46:07.892Z,52.10
2023-03-22T12:48:40.605Z,53.80
2023-03-22T12:51:10.246Z,53.10
2023-03-22T12:53:42.457Z,54.00
2023-03-22T12:56:15.058Z,54.30
2023-03-22T12:58:47.021Z,52.60
2023-03-22T13:01:24.860Z,53.40
2023-03-22T13:03:55.409Z,53.10
2023-03-22T13:06:33.926Z,53.50
2023-03-22T13:09:16.065Z,53.80
2023-03-22T13:11:45.645Z,53.80
2023-03-22T13:14:50.815Z,54.10
2023-03-22T13:20:28.538Z,54.20
2023-03-22T13:23:15.140Z,54.60
2023-03-22T13:26:00.061Z,54.10
2023-03-22T13:28:40.503Z,54.80
2023-03-22T13:31:35.110Z,55.30
2023-03-22T13:34:17.730Z,54.10
2023-03-22T13:36:54.867Z,55.00
2023-03-22T13:39:25.407Z,54.70
2023-03-22T13:42:09.345Z,55.40
2023-03-22T13:44:42.853Z,54.60
2023-03-22T13:47:37.450Z,54.40
2023-03-22T13:50:13.600Z,54.50
2023-03-22T13:52:53.534Z,57.00
2023-03-22T13:55:42.929Z,54.80
2023-03-22T13:58:34.545Z,55.00
2023-03-22T14:01:04.904Z,54.30
2023-03-22T14:03:36.512Z,54.90
2023-03-22T14:06:16.333Z,54.80
2023-03-22T14:08:48.154Z,54.00
2023-03-22T14:11:23.826Z,54.40
2023-03-22T14:13:57.700Z,54.60
2023-03-22T14:16:37.161Z,55.40
2023-03-22T14:19:08.092Z,54.00
2023-03-22T14:21:39.434Z,54.40
